Weather at Malmö Sturup Airport

Public forecast

Using degrees Celsius for public forecast. Weather courtesy of forecast.io.

Current aviation weather report (METAR) for Malmö Sturup Airport

Retrieved 2022/05/17 17:50 UTC (22 minutes ago):

ESMS 171750Z 12010KT CAVOK 13/M01 Q1025

Aviation forecast (TAF) for Malmö Sturup Airport

Retrieved 2022/05/17 18:00 UTC (12 minutes ago):

TAF ESMS 171706Z 1718/1818 12011KT CAVOK